Brayton, United Kingdom
Current Conditions -  °F | °C
As of 4:50 AM on Wednesday 26 Nov 2014 (Local Time) from EGXU Reporting Station
Broken Clouds Broken Clouds  
Wind Chill: 35°   Ceiling: 6000
Heat Index: 41°   Visibility: 3mi
Dew Point: 39°   Wind: 9mph
Humidity: 93%   Direction: 310°NW
Pressure: 30"   Gusts: NA
Location:  53.77°N, 1.09°W
Report Text: EGXU 260450Z AUTO 31008KT 4800 // FEW017/// BKN060/// 05/04 Q1016
Loading
Personal Weather Stations






























Interactive Weather Map New forecast layout! Learn more

10-Day Weather Forecast

Advertisements
Track Severe Weather on mobile